createdAt,value
2022-09-28T00:00:41.296Z,13.29
2022-09-28T00:03:28.171Z,13.19
2022-09-28T00:06:18.544Z,13.31
2022-09-28T00:09:05.593Z,13.17
2022-09-28T00:11:53.850Z,13.28
2022-09-28T00:14:40.738Z,13.28
2022-09-28T00:17:27.581Z,13.31
2022-09-28T00:20:14.597Z,13.23
2022-09-28T00:23:01.458Z,13.13
2022-09-28T00:25:48.290Z,13.20
2022-09-28T00:28:35.154Z,13.26
2022-09-28T00:31:22.980Z,13.31
2022-09-28T00:34:10.260Z,13.28
2022-09-28T00:36:57.503Z,13.28
2022-09-28T00:39:45.193Z,13.34
2022-09-28T00:42:32.081Z,13.31
2022-09-28T00:45:19.497Z,13.33
2022-09-28T00:48:07.140Z,13.36
2022-09-28T00:50:54.088Z,13.42
2022-09-28T00:53:43.786Z,13.52
2022-09-28T00:56:33.670Z,13.39
2022-09-28T00:59:24.409Z,13.42
2022-09-28T01:02:11.822Z,13.46
2022-09-28T01:05:00.543Z,13.49
2022-09-28T01:07:48.544Z,13.54
2022-09-28T01:10:35.379Z,13.67
2022-09-28T01:13:23.572Z,13.53
2022-09-28T01:16:13.272Z,13.55
2022-09-28T01:19:12.348Z,13.48
2022-09-28T01:22:36.374Z,13.52
2022-09-28T01:25:55.068Z,13.58
2022-09-28T01:28:43.841Z,13.69
2022-09-28T01:31:33.945Z,13.56
2022-09-28T01:34:44.237Z,13.58
2022-09-28T01:37:58.281Z,13.60
2022-09-28T01:40:47.490Z,13.67
2022-09-28T01:43:39.152Z,13.81
2022-09-28T01:46:54.538Z,13.75
2022-09-28T01:49:47.189Z,13.84
2022-09-28T01:53:10.402Z,13.76
2022-09-28T01:56:08.012Z,13.71
2022-09-28T01:59:00.961Z,13.82
2022-09-28T02:01:51.885Z,13.84
2022-09-28T02:04:45.062Z,13.79
2022-09-28T02:07:40.270Z,13.87
2022-09-28T02:10:38.589Z,13.98
2022-09-28T02:13:33.310Z,13.87
2022-09-28T02:16:31.610Z,13.87
2022-09-28T02:19:25.854Z,13.91
2022-09-28T02:22:40.410Z,13.91
2022-09-28T02:25:27.153Z,14.11
2022-09-28T02:28:14.240Z,13.97
2022-09-28T02:31:01.217Z,14.11
2022-09-28T02:33:51.045Z,13.97
2022-09-28T02:36:38.202Z,14.03
2022-09-28T02:39:26.795Z,13.96
2022-09-28T02:42:34.495Z,13.93
2022-09-28T02:45:45.269Z,13.99
2022-09-28T02:49:10.529Z,13.96
2022-09-28T02:52:19.394Z,13.98
2022-09-28T02:55:18.572Z,13.94
2022-09-28T02:58:39.405Z,14.09
2022-09-28T03:01:40.021Z,14.05
2022-09-28T03:04:29.770Z,14.12
2022-09-28T03:07:35.501Z,14.18
2022-09-28T03:10:38.871Z,14.17
2022-09-28T03:13:27.132Z,14.12
2022-09-28T03:16:17.374Z,14.08
2022-09-28T03:19:04.336Z,14.10
2022-09-28T03:21:51.162Z,14.11
2022-09-28T03:24:38.019Z,14.09
2022-09-28T03:27:24.864Z,14.07
2022-09-28T03:30:13.074Z,13.95
2022-09-28T03:33:00.825Z,13.97
2022-09-28T03:35:51.711Z,13.96
2022-09-28T03:38:38.785Z,13.79
2022-09-28T03:41:27.781Z,13.96
2022-09-28T03:44:14.689Z,13.94
2022-09-28T03:47:01.567Z,13.95
2022-09-28T03:49:48.427Z,14.08
2022-09-28T03:52:35.277Z,13.98
2022-09-28T03:55:22.112Z,14.10
2022-09-28T03:58:08.983Z,14.10
2022-09-28T04:01:02.568Z,14.21
2022-09-28T04:03:55.117Z,14.27
2022-09-28T04:06:42.169Z,14.19
2022-09-28T04:09:29.051Z,14.22
2022-09-28T04:12:15.898Z,14.38
2022-09-28T04:15:02.956Z,14.35
2022-09-28T04:17:49.988Z,14.34
2022-09-28T04:20:37.439Z,14.09
2022-09-28T04:23:25.036Z,14.09
2022-09-28T04:26:21.234Z,14.11
2022-09-28T04:29:19.381Z,14.16
2022-09-28T04:32:06.593Z,14.16
2022-09-28T04:34:53.689Z,14.22
2022-09-28T04:37:40.729Z,14.20
2022-09-28T04:40:27.594Z,14.12
2022-09-28T04:43:14.582Z,14.11
2022-09-28T04:46:02.833Z,14.18
2022-09-28T04:48:49.789Z,14.25
2022-09-28T04:51:36.626Z,14.13
2022-09-28T04:54:23.474Z,14.11
2022-09-28T04:57:10.323Z,14.21
2022-09-28T04:59:57.167Z,14.23
2022-09-28T05:02:44.787Z,14.22
2022-09-28T05:05:31.693Z,14.13
2022-09-28T05:08:18.658Z,14.06
2022-09-28T05:11:07.894Z,14.09
2022-09-28T05:13:55.129Z,13.99
2022-09-28T05:16:42.279Z,14.02
2022-09-28T05:19:30.292Z,14.12
2022-09-28T05:22:17.158Z,14.20
2022-09-28T05:25:04.220Z,14.38
2022-09-28T05:27:57.386Z,14.18
2022-09-28T05:30:44.346Z,14.23
2022-09-28T05:33:32.409Z,14.17
2022-09-28T05:36:19.929Z,14.18
2022-09-28T05:39:06.906Z,14.11
2022-09-28T05:41:55.764Z,14.16
2022-09-28T05:44:42.594Z,14.09
2022-09-28T05:47:30.005Z,14.17
2022-09-28T05:50:16.940Z,14.06
2022-09-28T05:53:06.457Z,14.23
2022-09-28T05:55:53.312Z,14.26
2022-09-28T05:58:40.137Z,14.24
2022-09-28T06:01:27.153Z,14.06
2022-09-28T06:04:16.087Z,14.15
2022-09-28T06:07:03.083Z,14.12
2022-09-28T06:09:49.911Z,14.30
2022-09-28T06:12:36.726Z,14.40
2022-09-28T06:15:26.074Z,14.55
2022-09-28T06:18:17.130Z,14.45
2022-09-28T06:21:03.996Z,14.38
2022-09-28T06:23:50.890Z,14.37
2022-09-28T06:26:37.834Z,14.34
2022-09-28T06:29:24.714Z,14.54
2022-09-28T06:32:13.929Z,14.66
2022-09-28T06:35:00.845Z,14.71
2022-09-28T06:37:48.219Z,14.37
2022-09-28T06:40:35.925Z,14.41
2022-09-28T06:43:22.966Z,14.51
2022-09-28T06:46:10.544Z,14.48
2022-09-28T06:48:57.546Z,14.65
2022-09-28T06:51:46.090Z,14.67
2022-09-28T06:54:32.929Z,14.81
2022-09-28T06:57:19.786Z,15.08
2022-09-28T07:00:07.264Z,14.81
2022-09-28T07:02:54.144Z,14.88
2022-09-28T07:05:46.544Z,15.02
2022-09-28T07:08:33.467Z,14.92
2022-09-28T07:11:21.240Z,14.83
2022-09-28T07:14:12.255Z,14.77
2022-09-28T07:17:14.482Z,14.86
2022-09-28T07:20:15.157Z,14.84
2022-09-28T07:23:17.033Z,15.00
2022-09-28T07:26:08.802Z,15.31
2022-09-28T07:28:56.181Z,15.43
2022-09-28T07:31:43.048Z,15.58
2022-09-28T07:34:29.909Z,15.57
2022-09-28T07:37:18.968Z,15.59
2022-09-28T07:40:26.824Z,15.44
2022-09-28T07:43:13.913Z,15.36
2022-09-28T07:46:00.875Z,15.50
2022-09-28T07:48:49.547Z,15.60
2022-09-28T07:51:36.899Z,15.53
2022-09-28T07:54:23.758Z,15.64
2022-09-28T07:57:10.620Z,15.73
2022-09-28T07:59:57.525Z,15.68
2022-09-28T08:02:44.422Z,15.80
2022-09-28T08:05:32.069Z,15.81
2022-09-28T08:08:20.243Z,15.88
2022-09-28T08:11:07.304Z,16.26
2022-09-28T08:13:55.411Z,16.16
2022-09-28T08:16:46.743Z,16.15
2022-09-28T08:19:53.836Z,16.43
2022-09-28T08:22:40.673Z,16.49
2022-09-28T08:25:27.506Z,16.78
2022-09-28T08:28:15.972Z,17.08
2022-09-28T08:31:02.909Z,17.17
2022-09-28T08:33:54.418Z,17.29
2022-09-28T08:36:41.335Z,17.30
2022-09-28T08:39:28.320Z,17.21
2022-09-28T08:42:33.264Z,17.22
2022-09-28T08:45:27.457Z,17.32
2022-09-28T08:49:01.136Z,17.72
2022-09-28T08:52:18.866Z,17.97
2022-09-28T08:55:31.585Z,17.84
2022-09-28T08:58:26.104Z,17.67
2022-09-28T09:01:16.822Z,17.82
2022-09-28T09:04:07.067Z,17.83
2022-09-28T09:07:12.627Z,17.92
2022-09-28T09:10:08.624Z,18.00
2022-09-28T09:13:26.633Z,17.39
2022-09-28T09:16:51.193Z,17.54
2022-09-28T09:20:13.003Z,17.49
2022-09-28T09:23:06.124Z,17.61
2022-09-28T09:25:57.390Z,17.64
2022-09-28T09:28:44.250Z,17.56
2022-09-28T09:31:38.183Z,17.51
2022-09-28T09:34:37.121Z,17.32
2022-09-28T09:37:54.157Z,17.43
2022-09-28T09:40:53.743Z,17.44
2022-09-28T09:43:59.933Z,17.55
2022-09-28T09:46:54.064Z,17.70
2022-09-28T09:49:46.173Z,17.54
2022-09-28T09:52:47.184Z,17.70
2022-09-28T09:55:36.278Z,17.92
2022-09-28T09:58:33.922Z,17.92
2022-09-28T10:01:29.787Z,17.83
2022-09-28T10:04:26.812Z,17.81
2022-09-28T10:07:22.185Z,17.82
2022-09-28T10:10:19.183Z,17.67
2022-09-28T10:13:06.086Z,17.77
2022-09-28T10:15:53.237Z,17.95
2022-09-28T10:18:40.426Z,18.01
2022-09-28T10:21:28.435Z,18.15
2022-09-28T10:24:21.754Z,18.11
2022-09-28T10:27:14.160Z,18.25
2022-09-28T10:30:12.885Z,18.59
2022-09-28T10:33:01.420Z,18.75
2022-09-28T10:35:48.312Z,18.92
2022-09-28T10:38:35.385Z,19.10
2022-09-28T10:41:22.967Z,18.85
2022-09-28T10:44:18.883Z,19.02
2022-09-28T10:47:09.988Z,18.63
2022-09-28T10:49:58.075Z,18.68
2022-09-28T10:52:46.337Z,18.70
2022-09-28T10:55:33.731Z,18.85
2022-09-28T10:58:27.835Z,18.90
2022-09-28T11:01:21.702Z,18.85
2022-09-28T11:04:22.039Z,18.84
2022-09-28T11:07:20.007Z,18.93
2022-09-28T11:10:20.820Z,18.97
2022-09-28T11:13:10.027Z,19.05
2022-09-28T11:15:56.977Z,19.09
2022-09-28T11:18:43.821Z,19.08
2022-09-28T11:21:41.390Z,19.14
2022-09-28T11:24:29.188Z,18.94
2022-09-28T11:27:25.405Z,19.20
2022-09-28T11:30:33.835Z,18.99
2022-09-28T11:33:33.544Z,19.19
2022-09-28T11:36:39.629Z,19.43
2022-09-28T11:39:32.557Z,19.48
2022-09-28T11:42:23.554Z,19.66
2022-09-28T11:45:28.872Z,20.04
2022-09-28T11:48:29.134Z,20.29
2022-09-28T11:51:21.777Z,20.20
2022-09-28T11:54:15.176Z,20.19
2022-09-28T11:57:04.787Z,19.98
2022-09-28T11:59:58.068Z,19.58
2022-09-28T12:03:03.922Z,19.34
2022-09-28T12:05:57.646Z,18.69
2022-09-28T12:08:58.287Z,18.36
2022-09-28T12:11:49.028Z,18.36
2022-09-28T12:14:39.904Z,18.36
2022-09-28T12:17:48.627Z,18.44
2022-09-28T12:20:46.675Z,18.34
2022-09-28T12:23:37.175Z,18.17
2022-09-28T12:26:37.334Z,17.93
2022-09-28T12:29:51.681Z,17.77
2022-09-28T12:32:44.328Z,17.56
2022-09-28T12:35:52.734Z,17.37
2022-09-28T12:39:24.059Z,17.32
2022-09-28T12:42:27.668Z,17.19
2022-09-28T12:45:17.479Z,17.13
2022-09-28T12:48:23.093Z,17.15
2022-09-28T12:51:30.935Z,17.10
2022-09-28T12:54:34.483Z,17.02
2022-09-28T12:58:06.140Z,16.98
2022-09-28T13:01:17.643Z,16.79
2022-09-28T13:04:13.859Z,16.65
2022-09-28T13:07:09.664Z,16.54
2022-09-28T13:10:24.524Z,16.35
2022-09-28T13:13:42.204Z,16.03
2022-09-28T13:16:41.660Z,15.74
2022-09-28T13:19:31.532Z,15.57
2022-09-28T13:23:26.446Z,15.45
2022-09-28T13:26:23.677Z,15.47
2022-09-28T13:29:14.590Z,15.56
2022-09-28T13:32:03.286Z,15.59
2022-09-28T13:34:50.558Z,15.63
2022-09-28T13:37:37.433Z,15.70
2022-09-28T13:41:03.080Z,15.69
2022-09-28T13:44:23.848Z,15.78
2022-09-28T13:47:42.174Z,15.78
2022-09-28T13:50:45.816Z,15.74
2022-09-28T13:53:48.210Z,15.79
2022-09-28T13:57:10.313Z,15.90
2022-09-28T14:00:28.821Z,16.04
2022-09-28T14:03:46.169Z,15.99
2022-09-28T14:06:33.415Z,15.89
2022-09-28T14:09:25.283Z,15.95
2022-09-28T14:12:51.464Z,16.00
2022-09-28T14:15:41.941Z,16.09
2022-09-28T14:18:33.893Z,16.14
2022-09-28T14:21:32.660Z,16.22
2022-09-28T14:24:45.065Z,16.37
2022-09-28T14:27:44.837Z,16.45
2022-09-28T14:30:48.406Z,16.42
2022-09-28T14:33:35.667Z,16.62
2022-09-28T14:37:06.143Z,16.40
2022-09-28T14:40:11.858Z,16.26
2022-09-28T14:43:40.730Z,16.52
2022-09-28T14:46:29.632Z,16.58
2022-09-28T14:49:19.747Z,16.38
2022-09-28T14:52:12.354Z,16.36
2022-09-28T14:54:59.274Z,16.30
2022-09-28T14:57:53.132Z,16.40
2022-09-28T15:00:44.351Z,16.26
2022-09-28T15:03:34.152Z,16.44
2022-09-28T15:06:24.739Z,16.38
2022-09-28T15:09:35.125Z,16.59
2022-09-28T15:12:28.873Z,16.58
2022-09-28T15:15:31.848Z,16.66
2022-09-28T15:18:18.772Z,16.38
2022-09-28T15:21:05.745Z,16.50
2022-09-28T15:23:52.701Z,16.89
2022-09-28T15:26:39.565Z,17.32
2022-09-28T15:29:31.147Z,17.54
2022-09-28T15:32:25.890Z,17.57
2022-09-28T15:35:20.676Z,17.75
2022-09-28T15:38:15.989Z,17.39
2022-09-28T15:41:05.282Z,17.36
2022-09-28T15:44:07.292Z,17.12
2022-09-28T15:47:06.103Z,17.51
2022-09-28T15:50:03.215Z,17.30
2022-09-28T15:53:00.853Z,17.38
2022-09-28T15:55:49.914Z,17.22
2022-09-28T15:58:37.800Z,16.84
2022-09-28T16:02:04.068Z,16.79
2022-09-28T16:05:00.906Z,16.92
2022-09-28T16:07:56.048Z,17.16
2022-09-28T16:10:54.209Z,17.23
2022-09-28T16:14:06.313Z,17.33
2022-09-28T16:16:54.644Z,17.39
2022-09-28T16:19:42.300Z,17.48
2022-09-28T16:22:32.519Z,17.40
2022-09-28T16:25:25.926Z,17.53
2022-09-28T16:28:48.887Z,17.38
2022-09-28T16:31:37.325Z,17.30
2022-09-28T16:34:26.394Z,17.41
2022-09-28T16:37:33.791Z,17.45
2022-09-28T16:40:20.672Z,17.30
2022-09-28T16:43:16.241Z,17.39
2022-09-28T16:46:10.475Z,17.38
2022-09-28T16:49:01.642Z,17.14
2022-09-28T16:51:48.645Z,17.01
2022-09-28T16:54:54.164Z,17.16
2022-09-28T16:57:41.310Z,16.99
2022-09-28T17:00:29.221Z,16.75
2022-09-28T17:03:18.637Z,16.80
2022-09-28T17:06:08.630Z,16.60
2022-09-28T17:08:58.430Z,16.51
2022-09-28T17:11:45.269Z,16.44
2022-09-28T17:14:32.841Z,16.23
2022-09-28T17:17:19.814Z,16.21
2022-09-28T17:20:22.873Z,16.22
2022-09-28T17:23:10.305Z,16.23
2022-09-28T17:25:59.004Z,16.13
2022-09-28T17:28:46.034Z,16.12
2022-09-28T17:31:32.939Z,16.09
2022-09-28T17:34:20.856Z,16.09
2022-09-28T17:37:12.165Z,16.16
2022-09-28T17:39:59.066Z,16.17
2022-09-28T17:42:47.907Z,16.13
2022-09-28T17:45:39.434Z,16.24
2022-09-28T17:48:27.106Z,16.14
2022-09-28T17:51:14.144Z,16.28
2022-09-28T17:54:01.813Z,16.19
2022-09-28T17:56:48.728Z,16.15
2022-09-28T17:59:35.633Z,16.21
2022-09-28T18:02:23.799Z,16.04
2022-09-28T18:05:14.315Z,16.05
2022-09-28T18:08:01.297Z,15.79
2022-09-28T18:10:49.584Z,15.95
2022-09-28T18:13:36.515Z,15.99
2022-09-28T18:16:23.666Z,15.83
2022-09-28T18:19:10.598Z,15.67
2022-09-28T18:21:58.327Z,15.53
2022-09-28T18:24:45.217Z,15.37
2022-09-28T18:27:34.383Z,15.46
2022-09-28T18:30:21.266Z,15.50
2022-09-28T18:33:08.744Z,15.57
2022-09-28T18:35:55.652Z,15.54
2022-09-28T18:38:42.538Z,15.55
2022-09-28T18:41:29.648Z,15.55
2022-09-28T18:44:16.621Z,15.61
2022-09-28T18:47:03.578Z,15.56
2022-09-28T18:49:51.131Z,15.67
2022-09-28T18:52:39.761Z,15.52
2022-09-28T18:55:26.912Z,15.24
2022-09-28T18:58:13.836Z,15.30
2022-09-28T19:01:28.875Z,15.24
2022-09-28T19:04:16.374Z,15.06
2022-09-28T19:07:03.357Z,15.16
2022-09-28T19:09:50.942Z,15.14
2022-09-28T19:12:37.805Z,15.00
2022-09-28T19:15:25.573Z,14.99
2022-09-28T19:18:12.428Z,14.93
2022-09-28T19:21:03.192Z,14.89
2022-09-28T19:23:50.218Z,14.67
2022-09-28T19:26:37.096Z,14.55
2022-09-28T19:29:24.011Z,14.48
2022-09-28T19:32:12.670Z,14.57
2022-09-28T19:34:59.502Z,14.53
2022-09-28T19:37:46.752Z,14.49
2022-09-28T19:40:36.844Z,14.59
2022-09-28T19:43:24.775Z,14.61
2022-09-28T19:46:13.245Z,14.50
2022-09-28T19:49:01.674Z,14.54
2022-09-28T19:52:13.871Z,14.37
2022-09-28T19:55:01.671Z,14.35
2022-09-28T19:57:49.057Z,14.22
2022-09-28T20:00:37.151Z,14.28
2022-09-28T20:03:25.921Z,14.27
2022-09-28T20:06:17.116Z,14.44
2022-09-28T20:09:05.210Z,14.44
2022-09-28T20:11:53.151Z,14.62
2022-09-28T20:14:40.607Z,14.66
2022-09-28T20:17:27.695Z,14.82
2022-09-28T20:20:14.623Z,14.74
2022-09-28T20:23:01.915Z,14.41
2022-09-28T20:25:52.404Z,14.64
2022-09-28T20:28:39.738Z,14.88
2022-09-28T20:31:26.675Z,15.08
2022-09-28T20:34:13.621Z,15.13
2022-09-28T20:37:00.465Z,15.20
2022-09-28T20:39:47.290Z,15.13
2022-09-28T20:42:34.184Z,15.18
2022-09-28T20:45:21.022Z,15.21
2022-09-28T20:48:07.838Z,15.04
2022-09-28T20:51:00.651Z,15.04
2022-09-28T20:53:53.258Z,15.07
2022-09-28T20:56:40.196Z,14.93
2022-09-28T20:59:27.761Z,14.96
2022-09-28T21:02:17.695Z,15.04
2022-09-28T21:05:06.110Z,15.14
2022-09-28T21:07:53.308Z,14.94
2022-09-28T21:10:43.521Z,15.11
2022-09-28T21:13:30.405Z,15.17
2022-09-28T21:16:18.150Z,15.23
2022-09-28T21:19:05.185Z,15.18
2022-09-28T21:21:52.094Z,15.08
2022-09-28T21:24:39.021Z,15.05
2022-09-28T21:27:25.909Z,15.14
2022-09-28T21:30:13.082Z,15.11
2022-09-28T21:33:01.506Z,15.25
2022-09-28T21:35:48.334Z,15.28
2022-09-28T21:38:35.499Z,15.24
2022-09-28T21:41:23.175Z,15.26
2022-09-28T21:44:10.592Z,15.25
2022-09-28T21:46:57.471Z,15.16
2022-09-28T21:49:44.273Z,15.17
2022-09-28T21:52:31.285Z,15.05
2022-09-28T21:55:19.629Z,15.26
2022-09-28T21:58:06.689Z,15.05
2022-09-28T22:01:08.040Z,15.10
2022-09-28T22:03:56.482Z,14.95
2022-09-28T22:06:43.324Z,14.76
2022-09-28T22:09:30.505Z,14.62
2022-09-28T22:12:17.824Z,14.29
2022-09-28T22:15:05.700Z,14.10
2022-09-28T22:17:52.698Z,14.05
2022-09-28T22:20:39.503Z,14.10
2022-09-28T22:23:27.799Z,14.32
2022-09-28T22:26:24.829Z,14.45
2022-09-28T22:29:11.727Z,14.18
2022-09-28T22:32:02.217Z,14.03
2022-09-28T22:34:49.222Z,14.00
2022-09-28T22:37:36.098Z,14.08
2022-09-28T22:40:24.096Z,14.21
2022-09-28T22:43:11.008Z,14.23
2022-09-28T22:46:06.694Z,14.34
2022-09-28T22:48:57.333Z,14.54
2022-09-28T22:51:44.305Z,14.50
2022-09-28T22:54:31.177Z,14.39
2022-09-28T22:57:18.589Z,14.50
2022-09-28T23:00:06.408Z,14.63
2022-09-28T23:02:53.310Z,14.71
2022-09-28T23:05:40.238Z,14.64
2022-09-28T23:08:27.087Z,14.59
2022-09-28T23:11:15.262Z,14.61
2022-09-28T23:14:02.164Z,14.51
2022-09-28T23:16:49.007Z,14.51
2022-09-28T23:19:35.867Z,14.55
2022-09-28T23:22:22.742Z,14.52
2022-09-28T23:25:09.778Z,14.63
2022-09-28T23:27:56.657Z,14.70
2022-09-28T23:30:43.483Z,14.71
2022-09-28T23:33:30.304Z,14.68
2022-09-28T23:36:18.026Z,14.72
2022-09-28T23:39:04.951Z,14.74
2022-09-28T23:41:51.802Z,14.68
2022-09-28T23:44:38.628Z,14.71
2022-09-28T23:47:25.432Z,14.64
2022-09-28T23:50:12.299Z,14.60
2022-09-28T23:52:59.154Z,14.61
2022-09-28T23:55:46.001Z,14.70
2022-09-28T23:58:32.818Z,14.68
